createdAt,value
2023-05-01T00:00:18.386Z,14.87
2023-05-01T00:01:19.982Z,14.91
2023-05-01T00:02:21.818Z,14.94
2023-05-01T00:03:23.532Z,14.92
2023-05-01T00:04:25.211Z,14.97
2023-05-01T00:05:27.596Z,14.97
2023-05-01T00:06:29.232Z,14.04
2023-05-01T00:07:31.231Z,14.30
2023-05-01T00:08:32.887Z,14.41
2023-05-01T00:09:34.445Z,14.47
2023-05-01T00:10:36.761Z,14.53
2023-05-01T00:11:42.739Z,14.36
2023-05-01T00:12:51.151Z,14.49
2023-05-01T00:13:54.535Z,14.22
2023-05-01T00:14:56.050Z,14.41
2023-05-01T00:16:06.955Z,14.10
2023-05-01T00:17:08.541Z,14.21
2023-05-01T00:18:10.100Z,14.19
2023-05-01T00:19:12.677Z,14.37
2023-05-01T00:20:14.376Z,14.47
2023-05-01T00:21:16.207Z,14.59
2023-05-01T00:22:17.740Z,14.65
2023-05-01T00:23:19.263Z,14.64
2023-05-01T00:24:20.843Z,14.54
2023-05-01T00:25:22.376Z,14.56
2023-05-01T00:26:27.160Z,13.58
2023-05-01T00:27:28.690Z,13.86
2023-05-01T00:28:30.193Z,13.97
2023-05-01T00:29:31.756Z,14.22
2023-05-01T00:30:34.042Z,14.30
2023-05-01T00:31:36.242Z,14.23
2023-05-01T00:32:38.779Z,13.96
2023-05-01T00:33:40.645Z,14.07
2023-05-01T00:34:42.238Z,13.98
2023-05-01T00:35:45.119Z,14.12
2023-05-01T00:36:48.096Z,14.22
2023-05-01T00:37:51.214Z,14.16
2023-05-01T00:38:52.740Z,14.26
2023-05-01T00:39:54.529Z,14.31
2023-05-01T00:40:56.434Z,14.39
2023-05-01T00:41:58.091Z,14.21
2023-05-01T00:42:59.678Z,13.73
2023-05-01T00:44:01.349Z,13.76
2023-05-01T00:45:03.956Z,13.96
2023-05-01T00:46:06.313Z,14.14
2023-05-01T00:47:07.864Z,14.17
2023-05-01T00:48:09.619Z,14.21
2023-05-01T00:49:11.272Z,13.64
2023-05-01T00:50:12.880Z,13.85
2023-05-01T00:51:15.230Z,13.98
2023-05-01T00:52:16.781Z,13.74
2023-05-01T00:53:18.963Z,13.88
2023-05-01T00:54:21.403Z,14.03
2023-05-01T00:55:23.032Z,13.58
2023-05-01T00:56:26.729Z,13.58
2023-05-01T00:57:28.278Z,13.84
2023-05-01T00:58:29.843Z,13.83
2023-05-01T00:59:31.487Z,13.78
2023-05-01T01:00:33.045Z,13.90
2023-05-01T01:01:34.845Z,13.89
2023-05-01T01:02:36.971Z,13.59
2023-05-01T01:03:38.594Z,13.82
2023-05-01T01:04:44.826Z,13.96
2023-05-01T01:05:50.883Z,13.91
2023-05-01T01:07:12.772Z,13.87
2023-05-01T01:08:23.144Z,13.76
2023-05-01T01:09:36.950Z,13.82
2023-05-01T01:11:02.196Z,13.53
2023-05-01T01:12:09.662Z,13.61
2023-05-01T01:13:19.236Z,13.79
2023-05-01T01:14:27.553Z,13.83
2023-05-01T01:15:47.735Z,13.78
2023-05-01T01:16:59.590Z,13.43
2023-05-01T01:18:06.734Z,13.55
2023-05-01T01:19:20.705Z,13.69
2023-05-01T01:20:41.782Z,13.64
2023-05-01T01:21:43.415Z,13.55
2023-05-01T01:22:47.656Z,13.57
2023-05-01T01:24:25.954Z,13.56
2023-05-01T01:25:30.441Z,13.74
2023-05-01T01:26:57.038Z,13.43
2023-05-01T01:28:23.554Z,13.65
2023-05-01T01:29:55.715Z,13.32
2023-05-01T01:31:07.800Z,12.96
2023-05-01T01:32:31.659Z,13.17
2023-05-01T01:33:44.034Z,13.28
2023-05-01T01:34:50.627Z,13.49
2023-05-01T01:35:58.061Z,13.31
2023-05-01T01:37:05.146Z,13.45
2023-05-01T01:38:30.381Z,13.42
2023-05-01T01:39:51.092Z,13.01
2023-05-01T01:41:22.834Z,13.23
2023-05-01T01:42:34.882Z,13.36
2023-05-01T01:43:39.457Z,13.63
2023-05-01T01:44:43.065Z,13.51
2023-05-01T01:45:47.529Z,13.09
2023-05-01T01:46:50.380Z,13.13
2023-05-01T01:47:52.125Z,13.18
2023-05-01T01:48:53.733Z,13.43
2023-05-01T01:49:55.970Z,13.34
2023-05-01T01:50:58.772Z,13.49
2023-05-01T01:52:02.037Z,13.62
2023-05-01T01:53:03.785Z,13.37
2023-05-01T01:54:05.414Z,13.63
2023-05-01T01:55:11.374Z,13.13
2023-05-01T01:56:12.880Z,13.27
2023-05-01T01:57:14.867Z,13.50
2023-05-01T01:58:16.942Z,13.57
2023-05-01T01:59:18.964Z,13.20
2023-05-01T02:00:20.757Z,13.18
2023-05-01T02:01:22.778Z,12.85
2023-05-01T02:02:24.471Z,13.11
2023-05-01T02:03:26.820Z,12.77
2023-05-01T02:04:28.735Z,13.02
2023-05-01T02:05:30.382Z,13.13
2023-05-01T02:06:32.488Z,12.55
2023-05-01T02:07:34.684Z,12.83
2023-05-01T02:08:36.364Z,12.91
2023-05-01T02:09:37.922Z,12.70
2023-05-01T02:10:40.453Z,12.92
2023-05-01T02:11:42.345Z,12.73
2023-05-01T02:12:47.147Z,13.00
2023-05-01T02:13:49.427Z,12.98
2023-05-01T02:14:51.531Z,12.90
2023-05-01T02:15:53.286Z,12.37
2023-05-01T02:16:55.889Z,12.82
2023-05-01T02:17:57.466Z,12.78
2023-05-01T02:18:59.095Z,11.88
2023-05-01T02:20:00.785Z,12.10
2023-05-01T02:21:02.305Z,12.55
2023-05-01T02:22:04.237Z,12.70
2023-05-01T02:23:05.862Z,12.93
2023-05-01T02:24:07.447Z,12.98
2023-05-01T02:25:10.093Z,12.90
2023-05-01T02:26:13.687Z,12.89
2023-05-01T02:27:24.310Z,12.97
2023-05-01T02:28:27.185Z,13.16
2023-05-01T02:29:28.755Z,12.98
2023-05-01T02:30:30.385Z,13.00
2023-05-01T02:31:31.952Z,12.71
2023-05-01T02:32:33.926Z,12.86
2023-05-01T02:33:35.611Z,12.86
2023-05-01T02:34:37.357Z,13.06
2023-05-01T02:35:40.943Z,12.63
2023-05-01T02:36:42.783Z,12.03
2023-05-01T02:37:45.077Z,12.51
2023-05-01T02:38:47.387Z,12.73
2023-05-01T02:39:49.064Z,11.89
2023-05-01T02:40:52.559Z,12.18
2023-05-01T02:41:55.819Z,11.91
2023-05-01T02:42:57.413Z,11.65
2023-05-01T02:44:01.816Z,11.79
2023-05-01T02:45:04.913Z,12.03
2023-05-01T02:46:06.618Z,12.50
2023-05-01T02:47:08.855Z,12.47
2023-05-01T02:48:11.369Z,12.34
2023-05-01T02:49:12.970Z,12.08
2023-05-01T02:50:15.192Z,11.82
2023-05-01T02:51:16.794Z,11.88
2023-05-01T02:52:19.069Z,11.72
2023-05-01T02:53:20.644Z,12.22
2023-05-01T02:54:22.518Z,11.97
2023-05-01T02:55:24.182Z,12.01
2023-05-01T02:56:28.007Z,12.40
2023-05-01T02:57:30.164Z,11.86
2023-05-01T02:58:34.320Z,11.89
2023-05-01T02:59:36.017Z,12.08
2023-05-01T03:00:38.181Z,12.50
2023-05-01T03:01:40.095Z,12.78
2023-05-01T03:02:42.680Z,12.57
2023-05-01T03:03:44.471Z,12.53
2023-05-01T03:04:46.060Z,12.48
2023-05-01T03:05:48.039Z,12.38
2023-05-01T03:06:49.898Z,12.38
2023-05-01T03:07:51.764Z,12.62
2023-05-01T03:08:53.370Z,12.66
2023-05-01T03:09:55.081Z,12.62
2023-05-01T03:10:56.897Z,11.89
2023-05-01T03:11:58.468Z,11.87
2023-05-01T03:13:00.639Z,11.96
2023-05-01T03:14:02.371Z,12.22
2023-05-01T03:15:04.286Z,12.33
2023-05-01T03:16:06.058Z,12.34
2023-05-01T03:17:08.112Z,12.42
2023-05-01T03:18:10.113Z,12.53
2023-05-01T03:19:11.719Z,12.35
2023-05-01T03:20:13.317Z,12.04
2023-05-01T03:21:15.019Z,11.83
2023-05-01T03:22:16.753Z,11.98
2023-05-01T03:23:18.313Z,12.38
2023-05-01T03:24:19.875Z,12.53
2023-05-01T03:25:21.434Z,12.47
2023-05-01T03:26:23.080Z,12.27
2023-05-01T03:27:24.672Z,12.50
2023-05-01T03:28:26.203Z,11.70
2023-05-01T03:29:27.760Z,12.11
2023-05-01T03:30:29.460Z,12.34
2023-05-01T03:31:31.154Z,12.31
2023-05-01T03:32:32.804Z,12.05
2023-05-01T03:33:34.450Z,12.25
2023-05-01T03:34:36.040Z,12.23
2023-05-01T03:35:38.212Z,11.90
2023-05-01T03:36:39.804Z,12.07
2023-05-01T03:37:41.596Z,12.02
2023-05-01T03:38:43.138Z,12.00
2023-05-01T03:39:44.783Z,12.04
2023-05-01T03:40:46.314Z,11.96
2023-05-01T03:41:48.029Z,12.10
2023-05-01T03:42:49.933Z,11.84
2023-05-01T03:43:52.170Z,12.08
2023-05-01T03:44:53.716Z,12.14
2023-05-01T03:45:55.450Z,11.99
2023-05-01T03:46:57.108Z,12.24
2023-05-01T03:47:59.218Z,12.44
2023-05-01T03:49:00.810Z,12.52
2023-05-01T03:50:02.535Z,12.55
2023-05-01T03:51:04.442Z,12.54
2023-05-01T03:52:06.367Z,12.57
2023-05-01T03:53:07.969Z,12.66
2023-05-01T03:54:09.476Z,12.70
2023-05-01T03:55:10.993Z,12.77
2023-05-01T03:56:12.576Z,12.79
2023-05-01T03:57:14.730Z,12.55
2023-05-01T03:58:16.731Z,12.73
2023-05-01T03:59:18.337Z,12.83
2023-05-01T04:00:20.003Z,12.94
2023-05-01T04:01:21.752Z,13.02
2023-05-01T04:02:23.412Z,13.14
2023-05-01T04:03:25.460Z,13.14
2023-05-01T04:04:27.103Z,13.22
2023-05-01T04:05:28.862Z,13.20
2023-05-01T04:06:30.507Z,13.31
2023-05-01T04:07:32.069Z,13.29
2023-05-01T04:08:33.667Z,13.10
2023-05-01T04:09:35.297Z,12.84
2023-05-01T04:10:36.956Z,12.96
2023-05-01T04:11:38.584Z,13.03
2023-05-01T04:12:40.662Z,13.20
2023-05-01T04:13:42.318Z,13.11
2023-05-01T04:14:44.522Z,13.04
2023-05-01T04:15:49.082Z,12.84
2023-05-01T04:16:51.421Z,12.96
2023-05-01T04:17:54.257Z,12.72
2023-05-01T04:18:55.849Z,12.59
2023-05-01T04:19:57.838Z,12.75
2023-05-01T04:20:59.583Z,12.79
2023-05-01T04:22:01.583Z,12.91
2023-05-01T04:23:03.272Z,13.11
2023-05-01T04:24:05.094Z,13.14
2023-05-01T04:25:07.681Z,13.09
2023-05-01T04:26:09.895Z,13.26
2023-05-01T04:27:11.419Z,13.37
2023-05-01T04:28:13.778Z,13.19
2023-05-01T04:29:15.344Z,13.12
2023-05-01T04:30:16.974Z,13.09
2023-05-01T04:31:18.830Z,12.83
2023-05-01T04:32:20.407Z,13.32
2023-05-01T04:33:22.689Z,13.18
2023-05-01T04:34:24.437Z,13.42
2023-05-01T04:35:26.025Z,13.40
2023-05-01T04:36:27.573Z,13.50
2023-05-01T04:37:29.319Z,13.57
2023-05-01T04:38:31.634Z,13.43
2023-05-01T04:39:33.426Z,13.32
2023-05-01T04:40:35.097Z,13.29
2023-05-01T04:41:36.672Z,13.29
2023-05-01T04:42:38.754Z,13.39
2023-05-01T04:43:40.327Z,13.36
2023-05-01T04:44:42.094Z,13.40
2023-05-01T04:45:43.724Z,13.13
2023-05-01T04:46:45.618Z,13.19
2023-05-01T04:47:47.253Z,13.30
2023-05-01T04:48:48.881Z,12.94
2023-05-01T04:49:50.698Z,13.05
2023-05-01T04:50:52.243Z,12.88
2023-05-01T04:51:54.094Z,12.97
2023-05-01T04:52:55.644Z,13.10
2023-05-01T04:53:57.532Z,13.25
2023-05-01T04:54:59.158Z,13.33
2023-05-01T04:56:00.774Z,13.27
2023-05-01T04:57:03.348Z,12.91
2023-05-01T04:58:05.325Z,13.08
2023-05-01T04:59:07.054Z,12.99
2023-05-01T05:00:08.958Z,13.17
2023-05-01T05:01:10.914Z,13.35
2023-05-01T05:02:12.534Z,13.39
2023-05-01T05:03:14.182Z,13.42
2023-05-01T05:04:16.149Z,13.42
2023-05-01T05:05:17.728Z,13.12
2023-05-01T05:06:19.387Z,13.23
2023-05-01T05:07:21.235Z,13.27
2023-05-01T05:08:22.800Z,13.25
2023-05-01T05:09:24.694Z,13.46
2023-05-01T05:10:26.356Z,13.38
2023-05-01T05:11:27.939Z,13.41
2023-05-01T05:12:29.496Z,13.53
2023-05-01T05:13:31.179Z,13.62
2023-05-01T05:14:32.703Z,13.71
2023-05-01T05:15:34.254Z,13.78
2023-05-01T05:16:35.911Z,13.68
2023-05-01T05:17:37.539Z,13.46
2023-05-01T05:18:39.135Z,13.44
2023-05-01T05:19:40.939Z,13.66
2023-05-01T05:20:42.568Z,13.62
2023-05-01T05:21:44.194Z,13.88
2023-05-01T05:22:45.800Z,13.90
2023-05-01T05:23:47.431Z,13.99
2023-05-01T05:24:54.284Z,13.96
2023-05-01T05:25:56.114Z,14.16
2023-05-01T05:26:58.090Z,14.19
2023-05-01T05:28:00.519Z,14.27
2023-05-01T05:29:02.312Z,14.18
2023-05-01T05:30:07.630Z,13.99
2023-05-01T05:31:09.198Z,14.06
2023-05-01T05:32:11.701Z,13.82
2023-05-01T05:33:13.522Z,13.76
2023-05-01T05:34:15.123Z,13.80
2023-05-01T05:35:16.945Z,13.56
2023-05-01T05:36:18.740Z,13.31
2023-05-01T05:37:20.292Z,13.74
2023-05-01T05:38:21.893Z,13.78
2023-05-01T05:39:23.858Z,13.96
2023-05-01T05:40:25.507Z,14.06
2023-05-01T05:41:27.237Z,14.16
2023-05-01T05:42:29.344Z,13.76
2023-05-01T05:43:31.024Z,13.81
2023-05-01T05:44:36.238Z,14.02
2023-05-01T05:45:40.191Z,14.17
2023-05-01T05:46:41.872Z,14.21
2023-05-01T05:47:43.555Z,13.94
2023-05-01T05:48:45.325Z,13.85
2023-05-01T05:49:47.294Z,13.73
2023-05-01T05:50:51.074Z,13.08
2023-05-01T05:51:52.715Z,12.75
2023-05-01T05:52:54.293Z,13.32
2023-05-01T05:53:56.240Z,13.65
2023-05-01T05:54:58.170Z,13.84
2023-05-01T05:55:59.824Z,13.92
2023-05-01T05:57:02.696Z,13.94
2023-05-01T05:58:04.312Z,14.11
2023-05-01T05:59:06.747Z,14.12
2023-05-01T06:00:10.572Z,13.94
2023-05-01T06:01:12.239Z,13.87
2023-05-01T06:02:13.924Z,13.50
2023-05-01T06:03:16.461Z,13.94
2023-05-01T06:04:18.164Z,14.10
2023-05-01T06:05:19.957Z,14.37
2023-05-01T06:06:21.638Z,14.47
2023-05-01T06:07:23.956Z,14.12
2023-05-01T06:08:25.779Z,14.55
2023-05-01T06:09:28.042Z,14.65
2023-05-01T06:10:29.699Z,14.22
2023-05-01T06:11:31.233Z,14.48
2023-05-01T06:12:34.083Z,14.49
2023-05-01T06:13:38.141Z,14.64
2023-05-01T06:14:41.488Z,14.60
2023-05-01T06:15:43.719Z,14.84
2023-05-01T06:16:45.316Z,14.94
2023-05-01T06:17:46.901Z,14.89
2023-05-01T06:18:48.591Z,14.88
2023-05-01T06:19:52.476Z,14.98
2023-05-01T06:20:54.456Z,14.98
2023-05-01T06:21:55.987Z,14.94
2023-05-01T06:22:57.659Z,15.03
2023-05-01T06:23:59.180Z,15.16
2023-05-01T06:25:00.852Z,15.09
2023-05-01T06:26:02.392Z,15.01
2023-05-01T06:27:04.206Z,15.09
2023-05-01T06:28:05.830Z,15.22
2023-05-01T06:29:07.337Z,15.29
2023-05-01T06:30:09.806Z,15.35
2023-05-01T06:31:11.376Z,15.44
2023-05-01T06:32:12.956Z,15.47
2023-05-01T06:33:14.580Z,15.53
2023-05-01T06:34:16.530Z,15.22
2023-05-01T06:35:18.251Z,15.29
2023-05-01T06:36:20.036Z,15.35
2023-05-01T06:37:21.600Z,15.22
2023-05-01T06:38:25.022Z,15.32
2023-05-01T06:39:28.785Z,15.34
2023-05-01T06:40:31.706Z,15.30
2023-05-01T06:41:34.339Z,15.65
2023-05-01T06:42:39.109Z,15.63
2023-05-01T06:43:40.721Z,15.55
2023-05-01T06:44:42.928Z,15.48
2023-05-01T06:45:44.523Z,15.54
2023-05-01T06:46:46.440Z,15.40
2023-05-01T06:47:48.090Z,15.61
2023-05-01T06:48:49.652Z,15.77
2023-05-01T06:49:51.502Z,15.89
2023-05-01T06:50:53.337Z,15.95
2023-05-01T06:51:54.864Z,16.11
2023-05-01T06:52:56.465Z,16.28
2023-05-01T06:53:58.012Z,16.24
2023-05-01T06:54:59.825Z,16.18
2023-05-01T06:56:01.443Z,16.17
2023-05-01T06:57:02.948Z,16.08
2023-05-01T06:58:15.985Z,16.17
2023-05-01T06:59:25.228Z,16.42
2023-05-01T07:00:26.716Z,16.63
2023-05-01T07:01:30.151Z,16.06
2023-05-01T07:02:33.019Z,16.13
2023-05-01T07:03:34.730Z,15.94
2023-05-01T07:04:36.555Z,16.06
2023-05-01T07:05:38.155Z,15.82
2023-05-01T07:06:39.991Z,15.92
2023-05-01T07:07:47.297Z,15.98
2023-05-01T07:08:52.621Z,16.03
2023-05-01T07:09:55.010Z,15.56
2023-05-01T07:10:56.899Z,15.69
2023-05-01T07:11:58.733Z,15.87
2023-05-01T07:13:00.256Z,15.81
2023-05-01T07:14:02.180Z,15.83
2023-05-01T07:15:04.299Z,15.83
2023-05-01T07:16:07.170Z,15.84
2023-05-01T07:17:09.262Z,16.37
2023-05-01T07:18:12.607Z,16.12
2023-05-01T07:19:14.364Z,16.12
2023-05-01T07:20:17.053Z,15.64
2023-05-01T07:21:18.930Z,16.19
2023-05-01T07:22:20.587Z,16.58
2023-05-01T07:23:23.755Z,16.67
2023-05-01T07:24:25.461Z,16.57
2023-05-01T07:25:27.036Z,16.54
2023-05-01T07:26:28.550Z,16.78
2023-05-01T07:27:30.056Z,17.05
2023-05-01T07:28:31.728Z,17.19
2023-05-01T07:29:33.313Z,17.01
2023-05-01T07:30:36.252Z,16.87
2023-05-01T07:31:39.187Z,17.43
2023-05-01T07:32:41.061Z,17.36
2023-05-01T07:33:42.833Z,17.41
2023-05-01T07:34:44.569Z,17.42
2023-05-01T07:35:46.573Z,17.52
2023-05-01T07:36:48.208Z,17.51
2023-05-01T07:37:51.962Z,17.41
2023-05-01T07:38:53.555Z,17.15
2023-05-01T07:39:55.751Z,17.39
2023-05-01T07:40:57.669Z,17.53
2023-05-01T07:41:59.288Z,17.50
2023-05-01T07:43:01.682Z,17.41
2023-05-01T07:44:03.687Z,17.39
2023-05-01T07:45:05.836Z,17.38
2023-05-01T07:46:07.800Z,17.42
2023-05-01T07:47:09.553Z,17.58
2023-05-01T07:48:11.386Z,17.74
2023-05-01T07:49:13.339Z,17.80
2023-05-01T07:50:15.057Z,17.87
2023-05-01T07:51:18.482Z,17.94
2023-05-01T07:52:20.366Z,17.93
2023-05-01T07:53:24.780Z,18.03
2023-05-01T07:54:26.656Z,18.11
2023-05-01T07:55:28.511Z,18.12
2023-05-01T07:56:31.153Z,18.20
2023-05-01T07:57:35.576Z,18.46
2023-05-01T07:58:37.580Z,18.21
2023-05-01T07:59:39.208Z,18.20
2023-05-01T08:00:40.904Z,18.17
2023-05-01T08:01:42.572Z,18.22
2023-05-01T08:02:44.221Z,18.25
2023-05-01T08:03:48.091Z,18.28
2023-05-01T08:04:51.896Z,18.49
2023-05-01T08:05:53.636Z,18.61
2023-05-01T08:06:55.372Z,18.78
2023-05-01T08:07:57.386Z,18.83
2023-05-01T08:08:59.043Z,18.97
2023-05-01T08:10:01.066Z,18.89
2023-05-01T08:11:02.903Z,18.63
2023-05-01T08:12:04.652Z,18.67
2023-05-01T08:13:06.291Z,18.86
2023-05-01T08:14:08.194Z,18.78
2023-05-01T08:15:09.950Z,18.87
2023-05-01T08:16:11.702Z,18.89
2023-05-01T08:17:13.635Z,18.86
2023-05-01T08:18:21.245Z,18.95
2023-05-01T08:19:27.113Z,18.92
2023-05-01T08:20:28.867Z,19.19
2023-05-01T08:21:31.303Z,19.30
2023-05-01T08:22:36.108Z,19.44
2023-05-01T08:23:38.110Z,19.00
2023-05-01T08:24:41.000Z,18.46
2023-05-01T08:25:42.442Z,18.68
2023-05-01T08:26:44.190Z,18.55
2023-05-01T08:27:46.286Z,18.83
2023-05-01T08:28:48.704Z,18.38
2023-05-01T08:29:50.628Z,18.78
2023-05-01T08:30:52.245Z,18.98
2023-05-01T08:31:54.137Z,19.04
2023-05-01T08:32:56.248Z,19.11
2023-05-01T08:33:57.936Z,19.11
2023-05-01T08:34:59.540Z,18.86
2023-05-01T08:36:01.111Z,18.92
2023-05-01T08:37:02.821Z,19.01
2023-05-01T08:38:04.361Z,18.85
2023-05-01T08:39:05.973Z,18.86
2023-05-01T08:40:09.125Z,18.85
2023-05-01T08:41:11.008Z,18.40
2023-05-01T08:42:13.665Z,17.88
2023-05-01T08:43:15.308Z,18.00
2023-05-01T08:44:16.939Z,18.48
2023-05-01T08:45:19.156Z,18.25
2023-05-01T08:46:34.319Z,17.66
2023-05-01T08:47:37.219Z,17.32
2023-05-01T08:48:39.604Z,18.23
2023-05-01T08:49:42.191Z,18.42
2023-05-01T08:50:45.624Z,18.29
2023-05-01T08:51:48.257Z,18.11
2023-05-01T08:52:50.944Z,17.27
2023-05-01T08:53:53.018Z,17.08
2023-05-01T08:54:56.845Z,17.75
2023-05-01T08:55:58.468Z,18.03
2023-05-01T08:57:06.889Z,17.62
2023-05-01T08:58:10.303Z,17.53
2023-05-01T08:59:12.607Z,17.79
2023-05-01T09:00:20.363Z,18.12
2023-05-01T09:01:22.695Z,18.26
2023-05-01T09:02:25.002Z,17.89
2023-05-01T09:03:26.683Z,18.18
2023-05-01T09:04:32.252Z,18.21
2023-05-01T09:05:34.076Z,18.51
2023-05-01T09:06:36.181Z,18.67
2023-05-01T09:07:38.210Z,18.65
2023-05-01T09:08:39.709Z,18.57
2023-05-01T09:09:41.319Z,18.17
2023-05-01T09:10:46.154Z,17.96
2023-05-01T09:11:47.726Z,17.95
2023-05-01T09:12:51.842Z,18.04
2023-05-01T09:13:53.365Z,18.39
2023-05-01T09:14:56.334Z,18.59
2023-05-01T09:15:57.863Z,18.64
2023-05-01T09:16:59.445Z,18.40
2023-05-01T09:18:03.479Z,18.60
2023-05-01T09:19:05.488Z,18.75
2023-05-01T09:20:07.697Z,18.85
2023-05-01T09:21:09.299Z,18.74
2023-05-01T09:22:11.197Z,18.94
2023-05-01T09:23:12.845Z,19.00
2023-05-01T09:24:14.407Z,19.03
2023-05-01T09:25:15.979Z,18.93
2023-05-01T09:26:17.721Z,18.88
2023-05-01T09:27:19.316Z,18.08
2023-05-01T09:28:41.594Z,18.59
2023-05-01T09:29:47.483Z,18.65
2023-05-01T09:30:49.072Z,18.30
2023-05-01T09:31:51.004Z,17.82
2023-05-01T09:33:06.427Z,17.11
2023-05-01T09:34:08.424Z,17.04
2023-05-01T09:35:14.211Z,16.96
2023-05-01T09:36:17.361Z,16.84
2023-05-01T09:37:29.281Z,17.04
2023-05-01T09:38:31.009Z,17.47
2023-05-01T09:39:32.755Z,17.75
2023-05-01T09:40:34.260Z,18.05
2023-05-01T09:41:36.622Z,18.24
2023-05-01T09:42:41.412Z,18.14
2023-05-01T09:43:43.916Z,17.85
2023-05-01T09:44:45.459Z,18.19
2023-05-01T09:46:01.943Z,18.36
2023-05-01T09:47:03.892Z,18.48
2023-05-01T09:48:11.749Z,18.53
2023-05-01T09:49:13.430Z,18.70
2023-05-01T09:50:35.158Z,18.62
2023-05-01T09:51:36.897Z,18.55
2023-05-01T09:52:38.854Z,18.33
2023-05-01T09:53:40.840Z,18.27
2023-05-01T09:54:43.216Z,18.23
2023-05-01T09:55:44.786Z,18.32
2023-05-01T09:56:47.841Z,18.26
2023-05-01T09:57:49.647Z,18.38
2023-05-01T09:58:52.048Z,18.52
2023-05-01T10:00:08.368Z,18.44
2023-05-01T10:01:13.311Z,18.58
2023-05-01T10:02:33.029Z,18.66
2023-05-01T10:03:35.007Z,18.56
2023-05-01T10:04:36.721Z,18.40
2023-05-01T10:05:44.638Z,18.40
2023-05-01T10:06:46.505Z,18.48
2023-05-01T10:07:59.467Z,18.36
2023-05-01T10:09:01.019Z,18.45
2023-05-01T10:10:21.433Z,18.56
2023-05-01T10:11:23.746Z,18.65
2023-05-01T10:12:26.909Z,18.65
2023-05-01T10:13:28.708Z,18.67
2023-05-01T10:14:33.784Z,18.63
2023-05-01T10:15:38.042Z,18.64
2023-05-01T10:16:39.810Z,18.60
2023-05-01T10:17:43.238Z,18.51
2023-05-01T10:18:45.590Z,18.56
2023-05-01T10:19:47.901Z,18.63
2023-05-01T10:20:49.447Z,18.65
2023-05-01T10:21:53.882Z,18.67
2023-05-01T10:22:55.572Z,18.59
2023-05-01T10:23:57.293Z,18.47
2023-05-01T10:24:59.396Z,18.38
2023-05-01T10:26:02.986Z,18.40
2023-05-01T10:27:08.819Z,18.56
2023-05-01T10:28:11.364Z,18.51
2023-05-01T10:29:13.207Z,18.24
2023-05-01T10:30:15.064Z,18.36
2023-05-01T10:31:17.258Z,18.27
2023-05-01T10:32:18.905Z,18.35
2023-05-01T10:33:20.735Z,18.13
2023-05-01T10:34:22.655Z,18.21
2023-05-01T10:35:26.988Z,18.39
2023-05-01T10:36:33.348Z,18.42
2023-05-01T10:37:56.408Z,18.37
2023-05-01T10:38:58.826Z,18.51
2023-05-01T10:40:00.470Z,18.48
2023-05-01T10:41:02.082Z,18.29
2023-05-01T10:42:11.229Z,18.46
2023-05-01T10:43:17.040Z,18.50
2023-05-01T10:44:23.239Z,18.47
2023-05-01T10:45:28.404Z,18.43
2023-05-01T10:46:30.120Z,18.42
2023-05-01T10:47:31.858Z,18.40
2023-05-01T10:48:39.704Z,18.44
2023-05-01T10:50:09.806Z,18.49
2023-05-01T10:51:14.285Z,18.40
2023-05-01T10:52:15.939Z,18.00
2023-05-01T10:53:17.717Z,17.92
2023-05-01T10:54:19.217Z,17.93
2023-05-01T10:55:37.266Z,17.85
2023-05-01T10:56:38.744Z,17.49
2023-05-01T10:57:44.434Z,17.33
2023-05-01T10:58:51.682Z,17.49
2023-05-01T10:59:59.764Z,17.26
2023-05-01T11:01:32.613Z,16.60
2023-05-01T11:02:34.337Z,16.73
2023-05-01T11:03:36.629Z,16.61
2023-05-01T11:04:49.661Z,16.69
2023-05-01T11:06:00.158Z,16.53
2023-05-01T11:07:02.187Z,16.35
2023-05-01T11:08:35.807Z,16.41
2023-05-01T11:09:39.002Z,16.58
2023-05-01T11:10:40.533Z,16.32
2023-05-01T11:11:47.481Z,16.28
2023-05-01T11:12:51.541Z,16.13
2023-05-01T11:14:02.503Z,15.59
2023-05-01T11:15:05.962Z,15.54
2023-05-01T11:16:38.212Z,15.30
2023-05-01T11:17:40.219Z,15.62
2023-05-01T11:18:47.677Z,15.62
2023-05-01T11:19:50.038Z,15.68
2023-05-01T11:20:51.751Z,15.36
2023-05-01T11:21:54.224Z,15.38
2023-05-01T11:22:57.113Z,15.34
2023-05-01T11:24:01.650Z,15.42
2023-05-01T11:25:06.336Z,15.34
2023-05-01T11:26:08.124Z,15.39
2023-05-01T11:27:13.435Z,15.28
2023-05-01T11:28:15.175Z,15.24
2023-05-01T11:29:16.714Z,15.51
2023-05-01T11:30:18.265Z,15.46
2023-05-01T11:31:19.885Z,15.54
2023-05-01T11:32:27.082Z,15.47
2023-05-01T11:33:28.830Z,15.42
2023-05-01T11:34:35.799Z,15.32
2023-05-01T11:35:37.850Z,15.38
2023-05-01T11:36:49.850Z,15.17
2023-05-01T11:37:51.470Z,15.47
2023-05-01T11:38:53.866Z,15.47
2023-05-01T11:39:55.393Z,15.59
2023-05-01T11:40:58.722Z,15.59
2023-05-01T11:42:09.364Z,15.66
2023-05-01T11:43:12.624Z,15.60
2023-05-01T11:44:16.319Z,15.64
2023-05-01T11:45:19.671Z,15.59
2023-05-01T11:46:28.696Z,15.66
2023-05-01T11:47:32.262Z,16.04
2023-05-01T11:48:33.940Z,15.87
2023-05-01T11:49:35.588Z,15.78
2023-05-01T11:50:37.642Z,15.61
2023-05-01T11:51:39.339Z,15.62
2023-05-01T11:52:53.321Z,15.53
2023-05-01T11:54:01.757Z,15.42
2023-05-01T11:55:04.121Z,15.39
2023-05-01T11:56:25.961Z,15.36
2023-05-01T11:57:28.881Z,15.32
2023-05-01T11:58:32.512Z,15.25
2023-05-01T11:59:34.044Z,15.34
2023-05-01T12:00:40.608Z,15.37
2023-05-01T12:01:44.482Z,15.34
2023-05-01T12:02:57.680Z,15.19
2023-05-01T12:03:59.448Z,15.22
2023-05-01T12:05:15.811Z,15.24
2023-05-01T12:06:17.977Z,15.35
2023-05-01T12:07:23.202Z,15.38
2023-05-01T12:08:24.762Z,15.43
2023-05-01T12:09:29.471Z,15.40
2023-05-01T12:10:30.981Z,15.46
2023-05-01T12:11:32.728Z,15.45
2023-05-01T12:12:34.316Z,15.19
2023-05-01T12:13:35.974Z,15.27
2023-05-01T12:14:37.524Z,15.33
2023-05-01T12:15:51.984Z,15.37
2023-05-01T12:16:53.566Z,15.48
2023-05-01T12:17:55.294Z,15.48
2023-05-01T12:18:56.893Z,15.43
2023-05-01T12:19:58.571Z,15.48
2023-05-01T12:21:01.735Z,15.49
2023-05-01T12:22:09.456Z,15.54
2023-05-01T12:23:12.352Z,15.54
2023-05-01T12:24:16.251Z,15.86
2023-05-01T12:25:17.922Z,15.67
2023-05-01T12:26:26.239Z,15.53
2023-05-01T12:27:28.027Z,15.49
2023-05-01T12:28:29.619Z,15.51
2023-05-01T12:29:41.610Z,15.49
2023-05-01T12:30:43.501Z,15.51
2023-05-01T12:31:49.356Z,15.53
2023-05-01T12:32:51.143Z,15.58
2023-05-01T12:33:56.884Z,15.55
2023-05-01T12:34:58.976Z,15.60
2023-05-01T12:36:10.080Z,15.59
2023-05-01T12:37:11.661Z,15.69
2023-05-01T12:38:17.399Z,15.49
2023-05-01T12:39:18.941Z,15.28
2023-05-01T12:40:22.954Z,15.26
2023-05-01T12:41:37.825Z,15.28
2023-05-01T12:42:39.377Z,15.57
2023-05-01T12:43:42.520Z,15.56
2023-05-01T12:44:46.092Z,15.59
2023-05-01T12:45:51.862Z,15.58
2023-05-01T12:46:59.454Z,15.62
2023-05-01T12:48:01.048Z,15.72
2023-05-01T12:49:02.602Z,15.55
2023-05-01T12:50:04.536Z,15.77
2023-05-01T12:51:06.254Z,15.82
2023-05-01T12:52:08.520Z,15.90
2023-05-01T12:53:10.187Z,15.93
2023-05-01T12:54:12.243Z,15.94
2023-05-01T12:55:13.795Z,15.83
2023-05-01T12:56:25.170Z,15.84
2023-05-01T12:57:26.780Z,15.95
2023-05-01T12:58:37.558Z,15.71
2023-05-01T12:59:39.816Z,15.79
2023-05-01T13:00:49.505Z,15.74
2023-05-01T13:02:00.789Z,15.82
2023-05-01T13:03:03.761Z,15.93
2023-05-01T13:04:05.708Z,15.77
2023-05-01T13:05:08.490Z,15.61
2023-05-01T13:06:10.482Z,15.67
2023-05-01T13:07:15.820Z,15.75
2023-05-01T13:08:25.136Z,15.86
2023-05-01T13:09:28.172Z,15.97
2023-05-01T13:10:30.710Z,16.05
2023-05-01T13:11:32.304Z,16.07
2023-05-01T13:12:33.864Z,16.07
2023-05-01T13:13:36.020Z,16.06
2023-05-01T13:14:41.571Z,15.92
2023-05-01T13:15:43.115Z,16.10
2023-05-01T13:16:48.421Z,15.99
2023-05-01T13:17:50.102Z,16.04
2023-05-01T13:18:52.315Z,16.04
2023-05-01T13:19:58.171Z,16.04
2023-05-01T13:21:13.348Z,16.12
2023-05-01T13:22:14.865Z,16.18
2023-05-01T13:23:16.423Z,16.09
2023-05-01T13:24:18.098Z,15.97
2023-05-01T13:25:22.580Z,15.99
2023-05-01T13:26:35.274Z,15.89
2023-05-01T13:27:36.796Z,15.76
2023-05-01T13:28:45.000Z,15.79
2023-05-01T13:29:53.008Z,15.89
2023-05-01T13:30:54.562Z,15.96
2023-05-01T13:31:56.208Z,15.83
2023-05-01T13:32:57.888Z,15.93
2023-05-01T13:33:59.794Z,15.93
2023-05-01T13:35:01.576Z,15.96
2023-05-01T13:36:08.629Z,16.02
2023-05-01T13:37:15.988Z,16.09
2023-05-01T13:38:23.276Z,16.09
2023-05-01T13:39:24.908Z,16.15